United Spirit — ELYB2 — position and weather

sailwx.info

Track history (hours):
 
Tides and Currents Weather Stations Pressure Air Temp Water Temp Dewpoint Dewpoint Depression Visibility Wind Speed Wind Dir Waves Ship Positions

United Spirit

Last reported at 2017-Oct-14 03:52 UTC. Time now 2017-Oct-20 07:15 UTC.
Position N 30°55' W 124°05'.

Type: Cargo ship. MMSI: 636011280.

Date/timePositionNaut miles runAvg speedWind from/ knotsBaromVisibWave heightAir tempDewpointWater temp
2017-Oct-14 03:52N 30°55' W 124°05'1213.4
2017-Oct-14 02:58N 30°53' W 123°51'713.3
2017-Oct-14 02:29N 30°52' W 123°43'613.0
2017-Oct-14 02:00N 30°51' W 123°36'612.4
2017-Oct-14 01:30N 30°49' W 123°29'712.1
2017-Oct-14 00:53N 30°45' W 123°22'1812.8
2017-Oct-13 23:29N 30°42' W 123°01'713.0
2017-Oct-13 22:58N 30°41' W 122°53'612.5
2017-Oct-13 22:30N 30°40' W 122°47'712.9
2017-Oct-13 21:59N 30°39' W 122°39'1112.4
2017-Oct-13 21:06N 30°37' W 122°27'211.9
2017-Oct-13 20:58N 30°36' W 122°25'1312.4
2017-Oct-13 19:55N 30°34' W 122°10'7712.7
2017-Oct-13 13:52N 30°37' W 120°41'513.2
2017-Oct-13 13:30N 30°38' W 120°35'813.3
2017-Oct-13 12:54N 30°40' W 120°26'513.2
2017-Oct-13 12:30N 30°41' W 120°20'714.0
2017-Oct-13 12:00N 30°43' W 120°12'2014.1
2017-Oct-13 10:34N 30°47' W 119°49'114.2
2017-Oct-13 10:30N 30°47' W 119°48'1014.5
2017-Oct-13 09:48N 30°49' W 119°36'414.9
2017-Oct-13 09:30N 30°50' W 119°32'3114.8
2017-Oct-13 07:26N 30°56' W 118°56'1115.0
2017-Oct-13 06:41N 30°59' W 118°44'314.9
2017-Oct-13 06:30N 30°60' W 118°41'1515.0
2017-Oct-13 05:31N 31°10' W 118°28'017.0
2017-Oct-13 05:30N 31°10' W 118°28'1516.0
2017-Oct-13 04:34N 31°22' W 118°19'115.9
2017-Oct-13 04:30N 31°23' W 118°18'815.6
2017-Oct-13 04:00N 31°30' W 118°13'1115.7
2017-Oct-13 03:19N 31°39' W 118°06'515.8
2017-Oct-13 03:00N 31°43' W 118°03'1015.9
2017-Oct-13 02:24N 31°51' W 117°57'716.8
2017-Oct-13 01:58N 31°58' W 117°52'916.8
2017-Oct-13 01:24N 32°05' W 117°46'716.9
2017-Oct-13 01:00N 32°11' W 117°42'815.9
2017-Oct-13 00:30N 32°18' W 117°37'714.0
2017-Oct-13 00:00N 32°24' W 117°33'714.2
2017-Oct-12 23:30N 32°30' W 117°28'816.2
2017-Oct-12 23:00N 32°36' W 117°22'713.8
2017-Oct-12 22:30N 32°38' W 117°14'5 9.9
2017-Oct-12 22:01N 32°42' W 117°13'4 8.8
2017-Oct-12 21:30N 32°41' W 117°09'2 3.9
2017-Oct-12 20:58N 32°39' W 117°07'0 0.0
2017-Oct-12 20:28N 32°39' W 117°07'0 0.0
2017-Oct-12 19:58N 32°39' W 117°07'0 0.0
2017-Oct-12 19:28N 32°39' W 117°07'0 0.0
2017-Oct-12 18:58N 32°39' W 117°07'0 0.0
2017-Oct-12 18:28N 32°39' W 117°07'0 0.0
2017-Oct-12 17:52N 32°39' W 117°07'0 0.0
2017-Oct-12 17:28N 32°39' W 117°07'0 0.0
2017-Oct-12 16:58N 32°39' W 117°07'0 0.0
2017-Oct-12 16:25N 32°39' W 117°07'0 0.0
2017-Oct-12 15:58N 32°39' W 117°07'0 0.0
2017-Oct-12 15:28N 32°39' W 117°07'0 0.0
2017-Oct-12 14:58N 32°39' W 117°07'0 0.0
2017-Oct-12 14:25N 32°39' W 117°07'0 0.0
2017-Oct-12 13:55N 32°39' W 117°07'0 0.0
2017-Oct-12 13:28N 32°39' W 117°07'0 0.0
2017-Oct-12 12:58N 32°39' W 117°07'0 0.6
2017-Oct-12 12:30N 32°39' W 117°07'4 6.7
2017-Oct-12 11:55N 32°42' W 117°10'3 7.9
2017-Oct-12 11:30N 32°41' W 117°14'4 8.0
2017-Oct-12 11:00N 32°37' W 117°16'3 5.3
2017-Oct-12 10:30N 32°37' W 117°19'3 6.9
2017-Oct-12 10:00N 32°40' W 117°22'3 5.7
2017-Oct-12 09:30N 32°42' W 117°24'2 4.5
2017-Oct-12 09:00N 32°44' W 117°26'3 6.2
2017-Oct-12 08:30N 32°46' W 117°28'4 7.1
2017-Oct-12 08:00N 32°49' W 117°31'1 2.1
2017-Oct-12 07:30N 32°50' W 117°31'3 5.8
2017-Oct-12 07:00N 32°52' W 117°34'5 9.6
2017-Oct-12 06:30N 32°55' W 117°38'510.3
2017-Oct-12 06:00N 32°58' W 117°43'510.5
2017-Oct-12 05:30N 33°02' W 117°47'510.8
2017-Oct-12 05:00N 33°06' W 117°51'510.6
2017-Oct-12 04:30N 33°10' W 117°56'510.7
2017-Oct-12 04:00N 33°14' W 118°00'510.6
2017-Oct-12 03:30N 33°17' W 118°05'510.3
2017-Oct-12 03:00N 33°22' W 118°08'511.0
2017-Oct-12 02:30N 33°27' W 118°10'611.2
2017-Oct-12 02:00N 33°32' W 118°12'511.0
2017-Oct-12 01:30N 33°38' W 118°14'510.0
2017-Oct-12 01:01N 33°43' W 118°15'3 5.2
2017-Oct-12 00:30N 33°45' W 118°16'2 3.1
2017-Oct-12 00:00N 33°46' W 118°15'0 0.0
2017-Oct-11 23:27N 33°46' W 118°15'0 0.0
2017-Oct-11 23:00N 33°46' W 118°15'0 0.0
2017-Oct-11 22:30N 33°46' W 118°15'0 0.0
2017-Oct-11 22:00N 33°46' W 118°15'0 0.0
2017-Oct-11 21:30N 33°46' W 118°15'0 0.0
2017-Oct-11 20:54N 33°46' W 118°15'0 0.0
2017-Oct-11 20:30N 33°46' W 118°15'0 0.0
2017-Oct-11 19:48N 33°46' W 118°15'0 0.0
2017-Oct-11 19:30N 33°46' W 118°15'0 0.0
2017-Oct-11 19:00N 33°46' W 118°15'0 0.0
2017-Oct-11 18:30N 33°46' W 118°15'0 0.0
2017-Oct-11 18:00N 33°46' W 118°15'0 0.0
2017-Oct-11 17:30N 33°46' W 118°15'0 0.0
2017-Oct-11 17:00N 33°46' W 118°15'18 1.1
2017-Oct-11 00:00N 33°36' W 118°34'510.4
2017-Oct-10 23:30N 33°37' W 118°40'611.2
2017-Oct-10 23:00N 33°37' W 118°47'611.4
2017-Oct-10 22:30N 33°38' W 118°54'611.4
2017-Oct-10 22:00N 33°39' W 119°00'611.0
2017-Oct-10 21:30N 33°40' W 119°07'2 3.8
2017-Oct-10 21:00N 33°40' W 119°09'2 3.3
2017-Oct-10 20:30N 33°40' W 119°11'712.5
2017-Oct-10 19:57N 33°40' W 119°19'614.0
2017-Oct-10 19:30N 33°41' W 119°27'714.5
2017-Oct-10 18:59N 33°42' W 119°36'714.6
2017-Oct-10 18:31N 33°40' W 119°44'714.0
2017-Oct-10 18:00N 33°39' W 119°52'713.9
2017-Oct-10 17:30N 33°39' W 120°01'713.9
2017-Oct-10 17:01N 33°41' W 120°09'713.8
2017-Oct-10 16:30N 33°44' W 120°16'611.5
2017-Oct-10 16:00N 33°47' W 120°22'713.6
2017-Oct-10 15:31N 33°44' W 120°15'510.6
2017-Oct-10 15:00N 33°46' W 120°21'1313.4
2017-Oct-10 14:00N 33°51' W 120°35'4 7.4
2017-Oct-10 13:30N 33°53' W 120°40'2 3.9
2017-Oct-10 13:00N 33°54' W 120°41'713.6
2017-Oct-10 12:30N 33°60' W 120°45'714.0
2017-Oct-10 12:00N 34°06' W 120°50'713.9
2017-Oct-10 11:30N 34°12' W 120°54'713.5
2017-Oct-10 11:00N 34°17' W 120°58'713.4
2017-Oct-10 10:29N 34°23' W 121°03'613.4
2017-Oct-10 10:00N 34°29' W 121°07'713.7
2017-Oct-10 09:31N 34°35' W 121°12'713.9
2017-Oct-10 09:00N 34°40' W 121°16'713.7
2017-Oct-10 08:30N 34°46' W 121°21'714.5
2017-Oct-10 08:00N 34°52' W 121°25'714.5
2017-Oct-10 07:30N 34°58' W 121°30'714.3
2017-Oct-10 07:01N 35°05' W 121°35'714.1
2017-Oct-10 06:30N 35°11' W 121°39'714.0
2017-Oct-10 06:00N 35°16' W 121°44'714.2
2017-Oct-10 05:30N 35°22' W 121°48'714.0
2017-Oct-10 05:00N 35°28' W 121°53'814.2
2017-Oct-10 04:26N 35°35' W 121°58'6615.8
2017-Oct-10 00:13N 36°32' W 122°41'315.4
2017-Oct-10 00:01N 36°35' W 122°42'1915.2
2017-Oct-09 22:46N 36°52' W 122°53'414.6
2017-Oct-09 22:29N 36°56' W 122°55'613.0
2017-Oct-09 22:00N 37°01' W 122°59'612.8
2017-Oct-09 21:30N 37°07' W 123°03'612.7
2017-Oct-09 21:00N 37°12' W 123°07'712.8
2017-Oct-09 20:28N 37°19' W 123°11'613.1
2017-Oct-09 20:00N 37°24' W 123°14'2013.5
2017-Oct-09 18:30N 37°42' W 123°26'813.5
2017-Oct-09 17:55N 37°49' W 123°30'613.5
2017-Oct-09 17:30N 37°55' W 123°32'713.8
2017-Oct-09 17:00N 38°01' W 123°35'714.3
2017-Oct-09 16:30N 38°08' W 123°38'714.2
2017-Oct-09 16:00N 38°14' W 123°42'714.2
2017-Oct-09 15:30N 38°21' W 123°45'713.9
2017-Oct-09 15:00N 38°27' W 123°48'713.8
2017-Oct-09 14:28N 38°34' W 123°51'40013.8
2017-Oct-08 09:29N 45°11' W 125°05'714.0
2017-Oct-08 08:57N 45°18' W 125°05'913.7
2017-Oct-08 08:20N 45°27' W 125°04'413.7
2017-Oct-08 08:00N 45°31' W 125°05'713.5
2017-Oct-08 07:30N 45°38' W 125°05'713.7
2017-Oct-08 07:00N 45°45' W 125°05'713.6
2017-Oct-08 06:30N 45°51' W 125°06'713.8
2017-Oct-08 06:00N 45°58' W 125°07'714.1
2017-Oct-08 05:30N 46°05' W 125°07'714.5
2017-Oct-08 05:00N 46°13' W 125°07'714.0
2017-Oct-08 04:30N 46°20' W 125°08'714.1
2017-Oct-08 04:00N 46°27' W 125°08'1014.7
2017-Oct-08 03:19N 46°37' W 125°08'514.4
2017-Oct-08 03:01N 46°41' W 125°07'714.8
2017-Oct-08 02:31N 46°49' W 125°06'714.5
2017-Oct-08 02:01N 46°56' W 125°06'714.5
2017-Oct-08 01:30N 47°03' W 125°05'5715.5
2017-Oct-07 21:51N 47°59' W 125°18'1315.0
2017-Oct-07 20:58N 48°12' W 125°13'715.5
2017-Oct-07 20:30N 48°19' W 125°10'815.5
2017-Oct-07 20:00N 48°26' W 125°06'713.6
2017-Oct-07 19:30N 48°31' W 124°58'714.3
2017-Oct-07 19:00N 48°31' W 124°47'814.9
2017-Oct-07 18:30N 48°29' W 124°36'816.1
2017-Oct-07 18:00N 48°26' W 124°25'816.5
2017-Oct-07 17:31N 48°22' W 124°14'917.1
2017-Oct-07 17:00N 48°19' W 124°02'1017.5
2017-Oct-07 16:26N 48°17' W 123°47'717.6
2017-Oct-07 16:01N 48°15' W 123°36'816.0
2017-Oct-07 15:30N 48°12' W 123°25'510.2
2017-Oct-07 15:00N 48°09' W 123°19'816.1
2017-Oct-07 14:29N 48°13' W 123°08'817.1
2017-Oct-07 14:00N 48°12' W 122°55'815.8
2017-Oct-07 13:29N 48°09' W 122°44'714.9
2017-Oct-07 13:00N 48°03' W 122°38'815.7
2017-Oct-07 12:30N 47°57' W 122°31'816.3
2017-Oct-07 12:01N 47°49' W 122°27'917.2
2017-Oct-07 11:31N 47°41' W 122°27'917.0
2017-Oct-07 11:01N 47°32' W 122°26'816.7
2017-Oct-07 10:31N 47°24' W 122°22'713.6
2017-Oct-07 10:00N 47°19' W 122°28'3 6.3
2017-Oct-07 09:30N 47°16' W 122°24'1 0.2
2017-Oct-07 00:07N 47°15' W 122°23'0 0.2
2017-Oct-06 21:25N 47°16' W 122°23'0 0.0
2017-Oct-06 18:16N 47°16' W 122°23'0 0.0
2017-Oct-06 17:58N 47°16' W 122°23'1 3.2
2017-Oct-06 17:30N 47°17' W 122°25'4 7.2
2017-Oct-06 17:00N 47°20' W 122°27'612.4
2017-Oct-06 16:31N 47°25' W 122°24'816.8
2017-Oct-06 16:01N 47°33' W 122°27'816.3
2017-Oct-06 15:31N 47°42' W 122°28'816.1
2017-Oct-06 15:00N 47°50' W 122°28'815.5
2017-Oct-06 14:30N 47°57' W 122°33'815.3
2017-Oct-06 14:00N 48°04' W 122°39'815.2
2017-Oct-06 13:30N 48°10' W 122°46'816.6
2017-Oct-06 13:00N 48°11' W 122°58'816.9
2017-Oct-06 12:30N 48°11' W 123°10'714.4
2017-Oct-06 12:00N 48°10' W 123°21'5 9.7
2017-Oct-06 11:30N 48°12' W 123°28'4 8.4
2017-Oct-06 11:00N 48°16' W 123°28'4 8.2
2017-Oct-06 10:30N 48°20' W 123°26'5 9.4
2017-Oct-06 10:00N 48°23' W 123°22'4 8.2
2017-Oct-06 09:30N 48°24' W 123°16'713.9
2017-Oct-06 09:01N 48°30' W 123°12'917.1
2017-Oct-06 08:31N 48°39' W 123°14'714.9
2017-Oct-06 08:01N 48°45' W 123°08'612.6
2017-Oct-06 07:30N 48°50' W 123°03'917.5
2017-Oct-06 07:00N 48°56' W 123°12'714.9
2017-Oct-06 06:31N 49°02' W 123°20'510.6
2017-Oct-06 06:00N 49°07' W 123°16'611.6
2017-Oct-06 05:30N 49°07' W 123°08'5 9.9
2017-Oct-06 05:00N 49°09' W 123°01'4 8.3
2017-Oct-06 04:30N 49°11' W 122°55'0 0.3
2017-Oct-06 03:58N 49°11' W 122°55'0 0.0
2017-Oct-06 03:28N 49°11' W 122°55'0 0.0
2017-Oct-06 02:58N 49°11' W 122°55'0 0.0
2017-Oct-06 02:28N 49°11' W 122°55'0 0.0
2017-Oct-06 01:58N 49°11' W 122°55'0 0.0
2017-Oct-06 01:28N 49°11' W 122°55'0 0.0
2017-Oct-06 00:58N 49°11' W 122°55'0 0.0
2017-Oct-06 00:28N 49°11' W 122°55'0 0.0
2017-Oct-05 23:58N 49°11' W 122°55'0 0.0
2017-Oct-05 23:28N 49°11' W 122°55'0 0.0
2017-Oct-05 22:58N 49°11' W 122°55'0 0.0
2017-Oct-05 22:28N 49°11' W 122°55'0 0.0
2017-Oct-05 21:58N 49°11' W 122°55'0 0.0
2017-Oct-05 21:28N 49°11' W 122°55'0 0.0
2017-Oct-05 20:58N 49°11' W 122°55'0 0.0
2017-Oct-05 20:28N 49°11' W 122°55'0 0.0
2017-Oct-05 19:58N 49°11' W 122°55'0 0.0
2017-Oct-05 19:28N 49°11' W 122°55'0 0.0
2017-Oct-05 18:58N 49°11' W 122°55'0 0.0
2017-Oct-05 18:28N 49°11' W 122°55'0 0.0
2017-Oct-05 17:58N 49°11' W 122°55'0 0.0
2017-Oct-05 17:28N 49°11' W 122°55'0 0.0
2017-Oct-05 16:58N 49°11' W 122°55'0 0.0
2017-Oct-05 15:28N 49°11' W 122°55'0 0.0
2017-Oct-05 14:58N 49°11' W 122°55'0 0.0
2017-Oct-05 14:28N 49°11' W 122°55'0 0.0
2017-Oct-05 13:58N 49°11' W 122°55'0 0.0
2017-Oct-05 13:28N 49°11' W 122°55'0 0.4
2017-Oct-05 12:58N 49°11' W 122°55'0 0.0
2017-Oct-05 12:28N 49°11' W 122°55'0 0.0
2017-Oct-05 11:58N 49°11' W 122°55'0 0.0
2017-Oct-05 11:28N 49°11' W 122°55'0 0.0
2017-Oct-05 10:58N 49°11' W 122°55'0 0.0
2017-Oct-05 10:28N 49°11' W 122°55'0 0.0
2017-Oct-05 09:58N 49°11' W 122°55'0 0.0
2017-Oct-05 09:28N 49°11' W 122°55'0 0.0
2017-Oct-05 08:55N 49°11' W 122°55'0 0.0
2017-Oct-05 08:28N 49°11' W 122°55'0 0.1
2017-Oct-05 07:58N 49°11' W 122°55'0 0.1
2017-Oct-05 07:28N 49°11' W 122°55'0 0.0
2017-Oct-05 06:58N 49°11' W 122°55'0 0.0
2017-Oct-05 06:28N 49°11' W 122°55'0 0.0
2017-Oct-05 05:58N 49°11' W 122°55'0 0.0
2017-Oct-05 05:28N 49°11' W 122°55'0 0.0
2017-Oct-05 04:58N 49°11' W 122°55'0 0.0
2017-Oct-05 04:28N 49°11' W 122°55'0 0.0
2017-Oct-05 03:58N 49°11' W 122°55'0 0.0
2017-Oct-05 03:28N 49°11' W 122°55'0 0.0
2017-Oct-05 02:55N 49°11' W 122°55'0 0.0
2017-Oct-05 02:28N 49°11' W 122°55'0 0.0
2017-Oct-05 01:58N 49°11' W 122°55'0 0.0
2017-Oct-05 01:25N 49°11' W 122°55'0 0.0
2017-Oct-05 00:55N 49°11' W 122°55'0 0.0
2017-Oct-05 00:25N 49°11' W 122°55'0 0.0
2017-Oct-04 23:55N 49°11' W 122°55'0 0.0
2017-Oct-04 23:25N 49°11' W 122°55'0 0.0
2017-Oct-04 22:58N 49°11' W 122°55'0 0.0
2017-Oct-04 22:28N 49°11' W 122°55'0 0.0
2017-Oct-04 21:58N 49°11' W 122°55'0 0.0
2017-Oct-04 21:25N 49°11' W 122°55'0 0.1
2017-Oct-04 21:00N 49°11' W 122°55'2 4.8
2017-Oct-04 20:30N 49°09' W 122°58'5 9.9
2017-Oct-04 20:00N 49°07' W 123°05'510.0
2017-Oct-04 19:30N 49°07' W 123°12'510.2
2017-Oct-04 19:00N 49°05' W 123°20'5 9.1
2017-Oct-04 18:30N 49°01' W 123°16'714.6
2017-Oct-04 18:00N 48°56' W 123°09'816.3
2017-Oct-04 17:30N 48°50' W 123°01'612.4
2017-Oct-04 17:00N 48°44' W 123°06'612.9
2017-Oct-04 16:30N 48°41' W 123°15'611.1
2017-Oct-04 16:00N 48°36' W 123°13'5 9.0
2017-Oct-04 15:30N 48°31' W 123°11'5 9.2
2017-Oct-04 15:00N 48°27' W 123°10'5 9.3
2017-Oct-04 14:30N 48°23' W 123°15'611.4
2017-Oct-04 14:00N 48°21' W 123°22'5 9.1
2017-Oct-04 13:30N 48°17' W 123°26'5 9.5
2017-Oct-04 13:00N 48°14' W 123°31'5 9.5
2017-Oct-04 12:28N 48°14' W 123°39'4 8.2
2017-Oct-04 12:00N 48°14' W 123°44'5 9.3
2017-Oct-04 11:30N 48°13' W 123°51'5 9.9
2017-Oct-04 11:00N 48°14' W 123°59'510.2
2017-Oct-04 10:30N 48°17' W 124°06'5 9.9
2017-Oct-04 10:00N 48°19' W 124°12'510.4
2017-Oct-04 09:30N 48°21' W 124°19'510.2
2017-Oct-04 09:00N 48°23' W 124°26'510.3
2017-Oct-04 08:30N 48°25' W 124°33'510.2
2017-Oct-04 08:00N 48°27' W 124°40'3 6.7
2017-Oct-04 07:30N 48°29' W 124°45'5 9.3
2017-Oct-04 07:00N 48°29' W 124°52'612.5
2017-Oct-04 06:30N 48°29' W 125°01'713.5
2017-Oct-04 06:00N 48°29' W 125°12'713.4
2017-Oct-04 05:30N 48°29' W 125°22'714.2
2017-Oct-04 05:00N 48°29' W 125°32'713.9
2017-Oct-04 04:31N 48°29' W 125°43'714.1
2017-Oct-04 04:00N 48°29' W 125°53'  
Track history (hours):
 
Tides and Currents Weather Stations Pressure Air Temp Water Temp Dewpoint Dewpoint Depression Visibility Wind Speed Wind Dir Waves Ship Positions

United Spirit

Last reported at 2017-Oct-14 03:52 UTC. Time now 2017-Oct-20 07:15 UTC.
Position N 30°55' W 124°05'.

Type: Cargo ship. MMSI: 636011280.

Date/timePositionNaut miles runAvg speedWind from/ knotsBaromVisibWave heightAir tempDewpointWater temp
2017-Oct-14 03:52N 30°55' W 124°05'1213.4
2017-Oct-14 02:58N 30°53' W 123°51'713.3
2017-Oct-14 02:29N 30°52' W 123°43'613.0
2017-Oct-14 02:00N 30°51' W 123°36'612.4
2017-Oct-14 01:30N 30°49' W 123°29'712.1
2017-Oct-14 00:53N 30°45' W 123°22'1812.8
2017-Oct-13 23:29N 30°42' W 123°01'713.0
2017-Oct-13 22:58N 30°41' W 122°53'612.5
2017-Oct-13 22:30N 30°40' W 122°47'712.9
2017-Oct-13 21:59N 30°39' W 122°39'1112.4
2017-Oct-13 21:06N 30°37' W 122°27'211.9
2017-Oct-13 20:58N 30°36' W 122°25'1312.4
2017-Oct-13 19:55N 30°34' W 122°10'7712.7
2017-Oct-13 13:52N 30°37' W 120°41'513.2
2017-Oct-13 13:30N 30°38' W 120°35'813.3
2017-Oct-13 12:54N 30°40' W 120°26'513.2
2017-Oct-13 12:30N 30°41' W 120°20'714.0
2017-Oct-13 12:00N 30°43' W 120°12'2014.1
2017-Oct-13 10:34N 30°47' W 119°49'114.2
2017-Oct-13 10:30N 30°47' W 119°48'1014.5
2017-Oct-13 09:48N 30°49' W 119°36'414.9
2017-Oct-13 09:30N 30°50' W 119°32'3114.8
2017-Oct-13 07:26N 30°56' W 118°56'1115.0
2017-Oct-13 06:41N 30°59' W 118°44'314.9
2017-Oct-13 06:30N 30°60' W 118°41'1515.0
2017-Oct-13 05:31N 31°10' W 118°28'017.0
2017-Oct-13 05:30N 31°10' W 118°28'1516.0
2017-Oct-13 04:34N 31°22' W 118°19'115.9
2017-Oct-13 04:30N 31°23' W 118°18'815.6
2017-Oct-13 04:00N 31°30' W 118°13'1115.7
2017-Oct-13 03:19N 31°39' W 118°06'515.8
2017-Oct-13 03:00N 31°43' W 118°03'1015.9
2017-Oct-13 02:24N 31°51' W 117°57'716.8
2017-Oct-13 01:58N 31°58' W 117°52'916.8
2017-Oct-13 01:24N 32°05' W 117°46'716.9
2017-Oct-13 01:00N 32°11' W 117°42'815.9
2017-Oct-13 00:30N 32°18' W 117°37'714.0
2017-Oct-13 00:00N 32°24' W 117°33'714.2
2017-Oct-12 23:30N 32°30' W 117°28'816.2
2017-Oct-12 23:00N 32°36' W 117°22'713.8
2017-Oct-12 22:30N 32°38' W 117°14'5 9.9
2017-Oct-12 22:01N 32°42' W 117°13'4 8.8
2017-Oct-12 21:30N 32°41' W 117°09'2 3.9
2017-Oct-12 20:58N 32°39' W 117°07'0 0.0
2017-Oct-12 20:28N 32°39' W 117°07'0 0.0
2017-Oct-12 19:58N 32°39' W 117°07'0 0.0
2017-Oct-12 19:28N 32°39' W 117°07'0 0.0
2017-Oct-12 18:58N 32°39' W 117°07'0 0.0
2017-Oct-12 18:28N 32°39' W 117°07'0 0.0
2017-Oct-12 17:52N 32°39' W 117°07'0 0.0
2017-Oct-12 17:28N 32°39' W 117°07'0 0.0
2017-Oct-12 16:58N 32°39' W 117°07'0 0.0
2017-Oct-12 16:25N 32°39' W 117°07'0 0.0
2017-Oct-12 15:58N 32°39' W 117°07'0 0.0
2017-Oct-12 15:28N 32°39' W 117°07'0 0.0
2017-Oct-12 14:58N 32°39' W 117°07'0 0.0
2017-Oct-12 14:25N 32°39' W 117°07'0 0.0
2017-Oct-12 13:55N 32°39' W 117°07'0 0.0
2017-Oct-12 13:28N 32°39' W 117°07'0 0.0
2017-Oct-12 12:58N 32°39' W 117°07'0 0.6
2017-Oct-12 12:30N 32°39' W 117°07'4 6.7
2017-Oct-12 11:55N 32°42' W 117°10'3 7.9
2017-Oct-12 11:30N 32°41' W 117°14'4 8.0
2017-Oct-12 11:00N 32°37' W 117°16'3 5.3
2017-Oct-12 10:30N 32°37' W 117°19'3 6.9
2017-Oct-12 10:00N 32°40' W 117°22'3 5.7
2017-Oct-12 09:30N 32°42' W 117°24'2 4.5
2017-Oct-12 09:00N 32°44' W 117°26'3 6.2
2017-Oct-12 08:30N 32°46' W 117°28'4 7.1
2017-Oct-12 08:00N 32°49' W 117°31'1 2.1
2017-Oct-12 07:30N 32°50' W 117°31'3 5.8
2017-Oct-12 07:00N 32°52' W 117°34'5 9.6
2017-Oct-12 06:30N 32°55' W 117°38'510.3
2017-Oct-12 06:00N 32°58' W 117°43'510.5
2017-Oct-12 05:30N 33°02' W 117°47'510.8
2017-Oct-12 05:00N 33°06' W 117°51'510.6
2017-Oct-12 04:30N 33°10' W 117°56'510.7
2017-Oct-12 04:00N 33°14' W 118°00'510.6
2017-Oct-12 03:30N 33°17' W 118°05'510.3
2017-Oct-12 03:00N 33°22' W 118°08'511.0
2017-Oct-12 02:30N 33°27' W 118°10'611.2
2017-Oct-12 02:00N 33°32' W 118°12'511.0
2017-Oct-12 01:30N 33°38' W 118°14'510.0
2017-Oct-12 01:01N 33°43' W 118°15'3 5.2
2017-Oct-12 00:30N 33°45' W 118°16'2 3.1
2017-Oct-12 00:00N 33°46' W 118°15'0 0.0
2017-Oct-11 23:27N 33°46' W 118°15'0 0.0
2017-Oct-11 23:00N 33°46' W 118°15'0 0.0
2017-Oct-11 22:30N 33°46' W 118°15'0 0.0
2017-Oct-11 22:00N 33°46' W 118°15'0 0.0
2017-Oct-11 21:30N 33°46' W 118°15'0 0.0
2017-Oct-11 20:54N 33°46' W 118°15'0 0.0
2017-Oct-11 20:30N 33°46' W 118°15'0 0.0
2017-Oct-11 19:48N 33°46' W 118°15'0 0.0
2017-Oct-11 19:30N 33°46' W 118°15'0 0.0
2017-Oct-11 19:00N 33°46' W 118°15'0 0.0
2017-Oct-11 18:30N 33°46' W 118°15'0 0.0
2017-Oct-11 18:00N 33°46' W 118°15'0 0.0
2017-Oct-11 17:30N 33°46' W 118°15'0 0.0
2017-Oct-11 17:00N 33°46' W 118°15'18 1.1
2017-Oct-11 00:00N 33°36' W 118°34'510.4
2017-Oct-10 23:30N 33°37' W 118°40'611.2
2017-Oct-10 23:00N 33°37' W 118°47'611.4
2017-Oct-10 22:30N 33°38' W 118°54'611.4
2017-Oct-10 22:00N 33°39' W 119°00'611.0
2017-Oct-10 21:30N 33°40' W 119°07'2 3.8
2017-Oct-10 21:00N 33°40' W 119°09'2 3.3
2017-Oct-10 20:30N 33°40' W 119°11'712.5
2017-Oct-10 19:57N 33°40' W 119°19'614.0
2017-Oct-10 19:30N 33°41' W 119°27'714.5
2017-Oct-10 18:59N 33°42' W 119°36'714.6
2017-Oct-10 18:31N 33°40' W 119°44'714.0
2017-Oct-10 18:00N 33°39' W 119°52'713.9
2017-Oct-10 17:30N 33°39' W 120°01'713.9
2017-Oct-10 17:01N 33°41' W 120°09'713.8
2017-Oct-10 16:30N 33°44' W 120°16'611.5
2017-Oct-10 16:00N 33°47' W 120°22'713.6
2017-Oct-10 15:31N 33°44' W 120°15'510.6
2017-Oct-10 15:00N 33°46' W 120°21'1313.4
2017-Oct-10 14:00N 33°51' W 120°35'4 7.4
2017-Oct-10 13:30N 33°53' W 120°40'2 3.9
2017-Oct-10 13:00N 33°54' W 120°41'713.6
2017-Oct-10 12:30N 33°60' W 120°45'714.0
2017-Oct-10 12:00N 34°06' W 120°50'713.9
2017-Oct-10 11:30N 34°12' W 120°54'713.5
2017-Oct-10 11:00N 34°17' W 120°58'713.4
2017-Oct-10 10:29N 34°23' W 121°03'613.4
2017-Oct-10 10:00N 34°29' W 121°07'713.7
2017-Oct-10 09:31N 34°35' W 121°12'713.9
2017-Oct-10 09:00N 34°40' W 121°16'713.7
2017-Oct-10 08:30N 34°46' W 121°21'714.5
2017-Oct-10 08:00N 34°52' W 121°25'714.5
2017-Oct-10 07:30N 34°58' W 121°30'714.3
2017-Oct-10 07:01N 35°05' W 121°35'714.1
2017-Oct-10 06:30N 35°11' W 121°39'714.0
2017-Oct-10 06:00N 35°16' W 121°44'714.2
2017-Oct-10 05:30N 35°22' W 121°48'714.0
2017-Oct-10 05:00N 35°28' W 121°53'814.2
2017-Oct-10 04:26N 35°35' W 121°58'6615.8
2017-Oct-10 00:13N 36°32' W 122°41'315.4
2017-Oct-10 00:01N 36°35' W 122°42'1915.2
2017-Oct-09 22:46N 36°52' W 122°53'414.6
2017-Oct-09 22:29N 36°56' W 122°55'613.0
2017-Oct-09 22:00N 37°01' W 122°59'612.8
2017-Oct-09 21:30N 37°07' W 123°03'612.7
2017-Oct-09 21:00N 37°12' W 123°07'712.8
2017-Oct-09 20:28N 37°19' W 123°11'613.1
2017-Oct-09 20:00N 37°24' W 123°14'2013.5
2017-Oct-09 18:30N 37°42' W 123°26'813.5
2017-Oct-09 17:55N 37°49' W 123°30'613.5
2017-Oct-09 17:30N 37°55' W 123°32'713.8
2017-Oct-09 17:00N 38°01' W 123°35'714.3
2017-Oct-09 16:30N 38°08' W 123°38'714.2
2017-Oct-09 16:00N 38°14' W 123°42'714.2
2017-Oct-09 15:30N 38°21' W 123°45'713.9
2017-Oct-09 15:00N 38°27' W 123°48'713.8
2017-Oct-09 14:28N 38°34' W 123°51'40013.8
2017-Oct-08 09:29N 45°11' W 125°05'714.0
2017-Oct-08 08:57N 45°18' W 125°05'913.7
2017-Oct-08 08:20N 45°27' W 125°04'413.7
2017-Oct-08 08:00N 45°31' W 125°05'713.5
2017-Oct-08 07:30N 45°38' W 125°05'713.7
2017-Oct-08 07:00N 45°45' W 125°05'713.6
2017-Oct-08 06:30N 45°51' W 125°06'713.8
2017-Oct-08 06:00N 45°58' W 125°07'714.1
2017-Oct-08 05:30N 46°05' W 125°07'714.5
2017-Oct-08 05:00N 46°13' W 125°07'714.0
2017-Oct-08 04:30N 46°20' W 125°08'714.1
2017-Oct-08 04:00N 46°27' W 125°08'1014.7
2017-Oct-08 03:19N 46°37' W 125°08'514.4
2017-Oct-08 03:01N 46°41' W 125°07'714.8
2017-Oct-08 02:31N 46°49' W 125°06'714.5
2017-Oct-08 02:01N 46°56' W 125°06'714.5
2017-Oct-08 01:30N 47°03' W 125°05'5715.5
2017-Oct-07 21:51N 47°59' W 125°18'1315.0
2017-Oct-07 20:58N 48°12' W 125°13'715.5
2017-Oct-07 20:30N 48°19' W 125°10'815.5
2017-Oct-07 20:00N 48°26' W 125°06'713.6
2017-Oct-07 19:30N 48°31' W 124°58'714.3
2017-Oct-07 19:00N 48°31' W 124°47'814.9
2017-Oct-07 18:30N 48°29' W 124°36'816.1
2017-Oct-07 18:00N 48°26' W 124°25'816.5
2017-Oct-07 17:31N 48°22' W 124°14'917.1
2017-Oct-07 17:00N 48°19' W 124°02'1017.5
2017-Oct-07 16:26N 48°17' W 123°47'717.6
2017-Oct-07 16:01N 48°15' W 123°36'816.0
2017-Oct-07 15:30N 48°12' W 123°25'510.2
2017-Oct-07 15:00N 48°09' W 123°19'816.1
2017-Oct-07 14:29N 48°13' W 123°08'817.1
2017-Oct-07 14:00N 48°12' W 122°55'815.8
2017-Oct-07 13:29N 48°09' W 122°44'714.9
2017-Oct-07 13:00N 48°03' W 122°38'815.7
2017-Oct-07 12:30N 47°57' W 122°31'816.3
2017-Oct-07 12:01N 47°49' W 122°27'917.2
2017-Oct-07 11:31N 47°41' W 122°27'917.0
2017-Oct-07 11:01N 47°32' W 122°26'816.7
2017-Oct-07 10:31N 47°24' W 122°22'713.6
2017-Oct-07 10:00N 47°19' W 122°28'3 6.3
2017-Oct-07 09:30N 47°16' W 122°24'1 0.2
2017-Oct-07 00:07N 47°15' W 122°23'0 0.2
2017-Oct-06 21:25N 47°16' W 122°23'0 0.0
2017-Oct-06 18:16N 47°16' W 122°23'0 0.0
2017-Oct-06 17:58N 47°16' W 122°23'1 3.2
2017-Oct-06 17:30N 47°17' W 122°25'4 7.2
2017-Oct-06 17:00N 47°20' W 122°27'612.4
2017-Oct-06 16:31N 47°25' W 122°24'816.8
2017-Oct-06 16:01N 47°33' W 122°27'816.3
2017-Oct-06 15:31N 47°42' W 122°28'816.1
2017-Oct-06 15:00N 47°50' W 122°28'815.5
2017-Oct-06 14:30N 47°57' W 122°33'815.3
2017-Oct-06 14:00N 48°04' W 122°39'815.2
2017-Oct-06 13:30N 48°10' W 122°46'816.6
2017-Oct-06 13:00N 48°11' W 122°58'816.9
2017-Oct-06 12:30N 48°11' W 123°10'714.4
2017-Oct-06 12:00N 48°10' W 123°21'5 9.7
2017-Oct-06 11:30N 48°12' W 123°28'4 8.4
2017-Oct-06 11:00N 48°16' W 123°28'4 8.2
2017-Oct-06 10:30N 48°20' W 123°26'5 9.4
2017-Oct-06 10:00N 48°23' W 123°22'4 8.2
2017-Oct-06 09:30N 48°24' W 123°16'713.9
2017-Oct-06 09:01N 48°30' W 123°12'917.1
2017-Oct-06 08:31N 48°39' W 123°14'714.9
2017-Oct-06 08:01N 48°45' W 123°08'612.6
2017-Oct-06 07:30N 48°50' W 123°03'917.5
2017-Oct-06 07:00N 48°56' W 123°12'714.9
2017-Oct-06 06:31N 49°02' W 123°20'510.6
2017-Oct-06 06:00N 49°07' W 123°16'611.6
2017-Oct-06 05:30N 49°07' W 123°08'5 9.9
2017-Oct-06 05:00N 49°09' W 123°01'4 8.3
2017-Oct-06 04:30N 49°11' W 122°55'0 0.3
2017-Oct-06 03:58N 49°11' W 122°55'0 0.0
2017-Oct-06 03:28N 49°11' W 122°55'0 0.0
2017-Oct-06 02:58N 49°11' W 122°55'0 0.0
2017-Oct-06 02:28N 49°11' W 122°55'0 0.0
2017-Oct-06 01:58N 49°11' W 122°55'0 0.0
2017-Oct-06 01:28N 49°11' W 122°55'0 0.0
2017-Oct-06 00:58N 49°11' W 122°55'0 0.0
2017-Oct-06 00:28N 49°11' W 122°55'0 0.0
2017-Oct-05 23:58N 49°11' W 122°55'0 0.0
2017-Oct-05 23:28N 49°11' W 122°55'0 0.0
2017-Oct-05 22:58N 49°11' W 122°55'0 0.0
2017-Oct-05 22:28N 49°11' W 122°55'0 0.0
2017-Oct-05 21:58N 49°11' W 122°55'0 0.0
2017-Oct-05 21:28N 49°11' W 122°55'0 0.0
2017-Oct-05 20:58N 49°11' W 122°55'0 0.0
2017-Oct-05 20:28N 49°11' W 122°55'0 0.0
2017-Oct-05 19:58N 49°11' W 122°55'0 0.0
2017-Oct-05 19:28N 49°11' W 122°55'0 0.0
2017-Oct-05 18:58N 49°11' W 122°55'0 0.0
2017-Oct-05 18:28N 49°11' W 122°55'0 0.0
2017-Oct-05 17:58N 49°11' W 122°55'0 0.0
2017-Oct-05 17:28N 49°11' W 122°55'0 0.0
2017-Oct-05 16:58N 49°11' W 122°55'0 0.0
2017-Oct-05 15:28N 49°11' W 122°55'0 0.0
2017-Oct-05 14:58N 49°11' W 122°55'0 0.0
2017-Oct-05 14:28N 49°11' W 122°55'0 0.0
2017-Oct-05 13:58N 49°11' W 122°55'0 0.0
2017-Oct-05 13:28N 49°11' W 122°55'0 0.4
2017-Oct-05 12:58N 49°11' W 122°55'0 0.0
2017-Oct-05 12:28N 49°11' W 122°55'0 0.0
2017-Oct-05 11:58N 49°11' W 122°55'0 0.0
2017-Oct-05 11:28N 49°11' W 122°55'0 0.0
2017-Oct-05 10:58N 49°11' W 122°55'0 0.0
2017-Oct-05 10:28N 49°11' W 122°55'0 0.0
2017-Oct-05 09:58N 49°11' W 122°55'0 0.0
2017-Oct-05 09:28N 49°11' W 122°55'0 0.0
2017-Oct-05 08:55N 49°11' W 122°55'0 0.0
2017-Oct-05 08:28N 49°11' W 122°55'0 0.1
2017-Oct-05 07:58N 49°11' W 122°55'0 0.1
2017-Oct-05 07:28N 49°11' W 122°55'0 0.0
2017-Oct-05 06:58N 49°11' W 122°55'0 0.0
2017-Oct-05 06:28N 49°11' W 122°55'0 0.0
2017-Oct-05 05:58N 49°11' W 122°55'0 0.0
2017-Oct-05 05:28N 49°11' W 122°55'0 0.0
2017-Oct-05 04:58N 49°11' W 122°55'0 0.0
2017-Oct-05 04:28N 49°11' W 122°55'0 0.0
2017-Oct-05 03:58N 49°11' W 122°55'0 0.0
2017-Oct-05 03:28N 49°11' W 122°55'0 0.0
2017-Oct-05 02:55N 49°11' W 122°55'0 0.0
2017-Oct-05 02:28N 49°11' W 122°55'0 0.0
2017-Oct-05 01:58N 49°11' W 122°55'0 0.0
2017-Oct-05 01:25N 49°11' W 122°55'0 0.0
2017-Oct-05 00:55N 49°11' W 122°55'0 0.0
2017-Oct-05 00:25N 49°11' W 122°55'0 0.0
2017-Oct-04 23:55N 49°11' W 122°55'0 0.0
2017-Oct-04 23:25N 49°11' W 122°55'0 0.0
2017-Oct-04 22:58N 49°11' W 122°55'0 0.0
2017-Oct-04 22:28N 49°11' W 122°55'0 0.0
2017-Oct-04 21:58N 49°11' W 122°55'0 0.0
2017-Oct-04 21:25N 49°11' W 122°55'0 0.1
2017-Oct-04 21:00N 49°11' W 122°55'2 4.8
2017-Oct-04 20:30N 49°09' W 122°58'5 9.9
2017-Oct-04 20:00N 49°07' W 123°05'510.0
2017-Oct-04 19:30N 49°07' W 123°12'510.2
2017-Oct-04 19:00N 49°05' W 123°20'5 9.1
2017-Oct-04 18:30N 49°01' W 123°16'714.6
2017-Oct-04 18:00N 48°56' W 123°09'816.3
2017-Oct-04 17:30N 48°50' W 123°01'612.4
2017-Oct-04 17:00N 48°44' W 123°06'612.9
2017-Oct-04 16:30N 48°41' W 123°15'611.1
2017-Oct-04 16:00N 48°36' W 123°13'5 9.0
2017-Oct-04 15:30N 48°31' W 123°11'5 9.2
2017-Oct-04 15:00N 48°27' W 123°10'5 9.3
2017-Oct-04 14:30N 48°23' W 123°15'611.4
2017-Oct-04 14:00N 48°21' W 123°22'5 9.1
2017-Oct-04 13:30N 48°17' W 123°26'5 9.5
2017-Oct-04 13:00N 48°14' W 123°31'5 9.5
2017-Oct-04 12:28N 48°14' W 123°39'4 8.2
2017-Oct-04 12:00N 48°14' W 123°44'5 9.3
2017-Oct-04 11:30N 48°13' W 123°51'5 9.9
2017-Oct-04 11:00N 48°14' W 123°59'510.2
2017-Oct-04 10:30N 48°17' W 124°06'5 9.9
2017-Oct-04 10:00N 48°19' W 124°12'510.4
2017-Oct-04 09:30N 48°21' W 124°19'510.2
2017-Oct-04 09:00N 48°23' W 124°26'510.3
2017-Oct-04 08:30N 48°25' W 124°33'510.2
2017-Oct-04 08:00N 48°27' W 124°40'3 6.7
2017-Oct-04 07:30N 48°29' W 124°45'5 9.3
2017-Oct-04 07:00N 48°29' W 124°52'612.5
2017-Oct-04 06:30N 48°29' W 125°01'713.5
2017-Oct-04 06:00N 48°29' W 125°12'713.4
2017-Oct-04 05:30N 48°29' W 125°22'714.2
2017-Oct-04 05:00N 48°29' W 125°32'713.9
2017-Oct-04 04:31N 48°29' W 125°43'714.1
2017-Oct-04 04:00N 48°29' W 125°53'  

Dump ship's entire track history